Time;durP1;ratioP1;P1;durP2;ratioP2;P2;SDS_P1;SDS_P2;PMS_P1;PMS_P2;Temp;Humidity;BMP_temperature;BMP_pressure;BME280_temperature;BME280_humidity;BME280_pressure;Samples;Min_cycle;Max_cycle;Signal;HPM_P1;HPM_P2
2022/04/08 00:01:11;;;;;;;13.15;8.55;;;;;;;15.24;51.45;100010.19;5034371;28;20053;-61
2022/04/08 00:03:38;;;;;;;19.52;12.63;;;;;;;15.21;52.07;100016.59;5033010;28;20077;-61
2022/04/08 00:06:05;;;;;;;22.70;15.82;;;;;;;15.22;52.13;100017.41;5034301;28;20065;-62
2022/04/08 00:08:31;;;;;;;27.30;17.73;;;;;;;15.18;52.13;100019.50;5033434;28;20107;-62
2022/04/08 00:10:58;;;;;;;31.42;20.25;;;;;;;15.18;52.69;100017.69;5034183;28;20045;-62
2022/04/08 00:13:24;;;;;;;30.38;21.70;;;;;;;15.12;53.10;100012.94;5033966;28;20096;-61
2022/04/08 00:15:51;;;;;;;34.05;22.27;;;;;;;15.10;53.16;100029.91;5032921;28;20041;-61
2022/04/08 00:18:19;;;;;;;32.88;22.30;;;;;;;15.03;53.54;100016.38;5033962;28;20041;-61
2022/04/08 00:20:45;;;;;;;32.80;22.08;;;;;;;14.98;53.51;100011.50;5033932;28;20409;-62
2022/04/08 00:23:12;;;;;;;34.67;23.95;;;;;;;14.98;53.87;99998.28;5032745;28;20045;-61
2022/04/08 00:25:39;;;;;;;35.10;24.13;;;;;;;14.96;53.74;100012.63;5033790;28;20100;-63
2022/04/08 00:28:06;;;;;;;38.90;25.20;;;;;;;14.98;53.86;100005.38;5033845;28;20046;-63
2022/04/08 00:30:32;;;;;;;43.50;28.17;;;;;;;14.99;54.04;99996.47;5033735;28;20087;-61
2022/04/08 00:32:59;;;;;;;46.13;29.90;;;;;;;14.95;54.31;99997.72;5032791;28;20045;-62
2022/04/08 00:35:26;;;;;;;44.97;30.55;;;;;;;14.90;54.47;100003.41;5033625;28;20052;-62
2022/04/08 00:37:52;;;;;;;45.53;31.30;;;;;;;14.89;54.71;100006.19;5033555;28;20132;-62
2022/04/08 00:40:19;;;;;;;48.20;32.25;;;;;;;14.83;55.02;100008.38;5033370;28;20053;-61
2022/04/08 00:42:46;;;;;;;49.42;33.88;;;;;;;14.83;55.25;100010.16;5033527;28;20087;-62
2022/04/08 00:45:12;;;;;;;46.97;32.85;;;;;;;14.83;55.41;100018.94;5033518;28;20045;-61
2022/04/08 00:47:41;;;;;;;46.67;32.92;;;;;;;14.81;55.85;100012.13;5033499;28;20081;-64
2022/04/08 00:50:09;;;;;;;46.85;32.72;;;;;;;14.80;55.92;100002.53;5032190;28;20049;-64
2022/04/08 00:52:39;;;;;;;45.30;32.63;;;;;;;14.78;55.96;100007.94;5033296;28;20100;-64
2022/04/08 00:55:06;;;;;;;45.38;31.13;;;;;;;14.78;56.13;100009.72;5033268;28;20115;-64
2022/04/08 00:57:34;;;;;;;49.00;34.38;;;;;;;14.76;56.15;100004.59;5033140;28;20049;-65
2022/04/08 01:00:10;;;;;;;48.63;33.97;;;;;;;14.71;56.34;100001.50;5033214;28;20041;-63
2022/04/08 01:02:37;;;;;;;47.92;33.65;;;;;;;14.68;56.42;100004.44;5033154;28;20049;-63
2022/04/08 01:05:04;;;;;;;48.80;33.53;;;;;;;14.63;56.82;100003.97;5032161;28;20041;-64
2022/04/08 01:07:31;;;;;;;46.35;33.60;;;;;;;14.68;56.69;100005.25;5033078;28;20052;-64
2022/04/08 01:09:58;;;;;;;53.03;34.45;;;;;;;14.60;56.63;99999.78;5033119;28;20049;-64
2022/04/08 01:12:25;;;;;;;47.90;34.60;;;;;;;14.54;56.86;99993.22;5033018;28;20053;-64
2022/04/08 01:14:59;;;;;;;47.75;33.30;;;;;;;14.47;57.47;99994.69;5032896;28;20410;-63
2022/04/08 01:17:26;;;;;;;45.65;33.67;;;;;;;14.43;57.29;99995.09;5032857;28;20061;-63
2022/04/08 01:19:53;;;;;;;45.35;33.50;;;;;;;14.47;57.11;99993.88;5033004;28;20441;-64
2022/04/08 01:22:20;;;;;;;44.80;34.05;;;;;;;14.45;57.05;99991.34;5031635;28;20050;-64
2022/04/08 01:24:49;;;;;;;47.55;32.90;;;;;;;14.44;57.22;99984.41;5032877;28;20548;-65
2022/04/08 01:27:19;;;;;;;46.50;33.70;;;;;;;14.41;57.38;99989.09;5032849;28;20080;-63
2022/04/08 01:29:47;;;;;;;49.30;33.45;;;;;;;14.38;57.57;99995.47;5032853;28;20125;-64
2022/04/08 01:32:15;;;;;;;48.17;34.83;;;;;;;14.37;57.55;99984.09;5032730;28;20091;-63
2022/04/08 01:34:44;;;;;;;48.97;35.08;;;;;;;14.37;57.41;99988.53;5032416;28;20081;-63
2022/04/08 01:37:10;;;;;;;49.83;34.92;;;;;;;14.33;57.53;99993.22;5031908;28;20052;-63
2022/04/08 01:39:37;;;;;;;47.50;33.90;;;;;;;14.29;57.69;99994.44;5032701;28;20053;-65
2022/04/08 01:42:04;;;;;;;51.45;36.08;;;;;;;14.27;57.83;99998.19;5032482;28;20049;-64
2022/04/08 01:44:31;;;;;;;47.47;34.25;;;;;;;14.24;57.88;100001.91;5032516;28;20494;-65
2022/04/08 01:46:57;;;;;;;50.63;35.08;;;;;;;14.21;57.70;100012.75;5032608;28;20470;-64
2022/04/08 01:49:24;;;;;;;47.03;33.80;;;;;;;14.18;58.02;99998.00;5032399;28;20052;-63
2022/04/08 01:51:50;;;;;;;49.33;33.75;;;;;;;14.17;57.79;99998.97;5032595;28;20482;-63
2022/04/08 01:54:18;;;;;;;47.17;33.38;;;;;;;14.15;57.86;100003.53;5031446;28;20072;-64
2022/04/08 01:56:44;;;;;;;50.85;34.22;;;;;;;14.13;58.01;100001.97;5032580;28;20046;-64
2022/04/08 01:59:11;;;;;;;49.75;34.55;;;;;;;14.09;57.90;99998.75;5032450;28;20406;-64
2022/04/08 02:01:37;;;;;;;51.72;35.53;;;;;;;14.07;58.26;100000.72;5032383;28;20056;-63
2022/04/08 02:04:04;;;;;;;51.53;34.33;;;;;;;14.05;58.20;99997.34;5032401;28;20045;-61
2022/04/08 02:06:32;;;;;;;50.33;34.20;;;;;;;14.01;58.03;99988.84;5032264;28;20049;-64
2022/04/08 02:08:58;;;;;;;55.38;34.40;;;;;;;13.99;58.29;99996.06;5031099;28;20497;-63
2022/04/08 02:11:25;;;;;;;51.50;34.65;;;;;;;13.99;58.08;99997.84;5032370;28;20109;-64
2022/04/08 02:13:51;;;;;;;49.83;34.95;;;;;;;13.97;58.42;99992.72;5032200;28;20085;-64
2022/04/08 02:16:18;;;;;;;44.97;32.88;;;;;;;13.96;58.58;99998.94;5032098;28;20081;-64
2022/04/08 02:18:45;;;;;;;47.83;33.25;;;;;;;13.95;58.29;100001.72;5032158;28;20133;-63
2022/04/08 02:21:11;;;;;;;47.40;33.85;;;;;;;13.93;58.58;99993.94;5032204;28;20045;-63
2022/04/08 02:23:38;;;;;;;51.80;36.40;;;;;;;13.92;58.29;99994.91;5032143;28;20132;-63
2022/04/08 02:26:06;;;;;;;48.28;34.40;;;;;;;13.89;58.50;100003.06;5030909;28;20058;-63
2022/04/08 02:28:33;;;;;;;51.50;35.88;;;;;;;13.86;58.57;100006.81;5032168;28;20046;-64
2022/04/08 02:31:00;;;;;;;45.35;33.78;;;;;;;13.86;58.62;100004.16;5032115;28;20068;-64
2022/04/08 02:33:27;;;;;;;52.05;35.03;;;;;;;13.85;58.77;100009.53;5031994;28;20547;-63
2022/04/08 02:35:53;;;;;;;46.10;34.00;;;;;;;13.85;58.63;100013.03;5032082;28;20100;-64
2022/04/08 02:38:20;;;;;;;47.47;33.25;;;;;;;13.83;58.85;100014.13;5031617;28;20121;-64
2022/04/08 02:40:46;;;;;;;53.53;36.85;;;;;;;13.86;58.54;100013.88;5030805;28;20513;-65
2022/04/08 02:43:13;;;;;;;51.20;34.80;;;;;;;13.86;58.74;100016.50;5031995;28;20057;-64
2022/04/08 02:45:39;;;;;;;52.35;35.50;;;;;;;13.85;58.65;100014.81;5033129;28;20088;-64
2022/04/08 02:48:06;;;;;;;52.85;35.40;;;;;;;13.81;58.94;100013.41;5035817;28;20046;-64
2022/04/08 02:50:33;;;;;;;47.95;34.10;;;;;;;13.80;58.85;100011.72;5035042;28;20045;-64
2022/04/08 02:53:00;;;;;;;52.53;35.00;;;;;;;13.80;58.87;100012.59;5035778;28;20045;-65
2022/04/08 02:55:27;;;;;;;53.08;34.80;;;;;;;13.79;58.76;100016.19;5035530;28;20111;-63
2022/04/08 02:57:53;;;;;;;55.90;35.75;;;;;;;13.76;59.07;100015.59;5034761;28;20080;-64
2022/04/08 03:00:20;;;;;;;52.72;35.47;;;;;;;13.75;58.83;100011.28;5035489;28;20058;-63
2022/04/08 03:02:48;;;;;;;50.33;34.60;;;;;;;13.74;58.94;100007.81;5032771;28;20557;-63
2022/04/08 03:05:16;;;;;;;54.88;35.97;;;;;;;13.74;58.93;100001.69;5032695;28;20073;-63
2022/04/08 03:07:42;;;;;;;50.50;34.15;;;;;;;13.73;59.16;99997.38;5032199;28;20046;-63
2022/04/08 03:10:10;;;;;;;53.42;36.00;;;;;;;13.71;59.16;100000.13;5012152;28;20056;-63
2022/04/08 03:12:37;;;;;;;48.58;34.30;;;;;;;13.70;59.19;100009.03;5015398;28;20064;-63
2022/04/08 03:15:05;;;;;;;52.72;35.65;;;;;;;13.70;59.04;100009.84;5031956;28;20057;-64
2022/04/08 03:17:32;;;;;;;51.03;35.92;;;;;;;13.65;59.24;100011.16;5032050;28;20053;-63
2022/04/08 03:19:58;;;;;;;52.00;36.83;;;;;;;13.61;59.20;100007.97;5031991;28;20053;-63
2022/04/08 03:22:25;;;;;;;49.85;35.30;;;;;;;13.61;59.29;100004.47;5032027;28;20529;-63
2022/04/08 03:24:51;;;;;;;51.47;35.50;;;;;;;13.56;59.00;100007.50;5031842;28;20065;-64
2022/04/08 03:27:19;;;;;;;50.97;36.17;;;;;;;13.50;59.19;100013.28;5031925;28;20041;-63
2022/04/08 03:29:45;;;;;;;50.08;35.33;;;;;;;13.50;59.24;100005.38;5030822;28;20073;-63
2022/04/08 03:32:12;;;;;;;52.28;34.97;;;;;;;13.47;59.36;100008.22;5031709;28;20073;-63
2022/04/08 03:34:38;;;;;;;51.60;34.95;;;;;;;13.47;59.37;100002.97;5031627;28;20168;-63
2022/04/08 03:37:05;;;;;;;49.53;34.70;;;;;;;13.46;59.46;100001.28;5031572;28;20050;-64
2022/04/08 03:39:32;;;;;;;50.05;35.65;;;;;;;13.46;59.54;100006.56;5031355;28;20048;-63
2022/04/08 03:42:00;;;;;;;50.33;35.30;;;;;;;13.45;59.54;100002.28;5031296;28;20084;-64
2022/04/08 03:44:26;;;;;;;50.80;33.83;;;;;;;13.39;59.65;99993.91;5031472;28;20054;-65
2022/04/08 03:46:53;;;;;;;53.90;36.03;;;;;;;13.37;59.65;99989.72;5030261;28;20091;-63
2022/04/08 03:49:21;;;;;;;49.17;35.35;;;;;;;13.41;59.48;99999.03;5031243;28;20069;-63
2022/04/08 03:51:47;;;;;;;52.22;34.03;;;;;;;13.36;59.73;100009.09;5031563;28;20132;-63
2022/04/08 03:54:18;;;;;;;53.40;35.95;;;;;;;13.36;59.80;100011.72;5031412;28;20103;-63
2022/04/08 03:56:45;;;;;;;49.17;34.58;;;;;;;13.26;60.04;100005.53;5031037;28;20045;-63
2022/04/08 03:59:11;;;;;;;47.28;32.95;;;;;;;13.21;59.73;100008.50;5031071;28;20049;-63
2022/04/08 04:01:38;;;;;;;44.35;31.58;;;;;;;13.17;59.78;100013.19;5031055;28;20603;-63
2022/04/08 04:04:05;;;;;;;44.03;29.63;;;;;;;13.16;59.66;100018.56;5030449;28;20111;-63
2022/04/08 04:06:32;;;;;;;40.67;28.08;;;;;;;13.09;59.51;100009.47;5031115;28;20536;-64
2022/04/08 04:08:58;;;;;;;46.15;30.85;;;;;;;13.08;59.53;100008.66;5030952;28;20042;-63
2022/04/08 04:11:25;;;;;;;45.55;29.20;;;;;;;13.10;59.35;100019.06;5030733;28;20068;-63
2022/04/08 04:13:52;;;;;;;43.47;30.67;;;;;;;13.09;59.17;100014.75;5030978;28;20110;-63
2022/04/08 04:16:18;;;;;;;45.42;29.48;;;;;;;13.09;59.23;100026.13;5030895;28;20057;-63
2022/04/08 04:18:45;;;;;;;46.03;31.80;;;;;;;13.04;59.16;100025.66;5030954;28;20045;-65
2022/04/08 04:21:12;;;;;;;70.85;42.40;;;;;;;13.06;59.30;100044.78;5029918;28;20052;-63
2022/04/08 04:23:39;;;;;;;53.95;36.03;;;;;;;13.06;59.30;100021.09;5030705;28;20057;-63
2022/04/08 04:26:06;;;;;;;46.70;33.00;;;;;;;13.02;59.48;100025.75;5031191;28;20644;-63
2022/04/08 04:28:33;;;;;;;46.80;33.88;;;;;;;13.00;59.50;100022.44;5030749;28;20056;-63
2022/04/08 04:31:01;;;;;;;48.83;32.47;;;;;;;12.96;59.66;100015.69;5030424;28;20072;-63
2022/04/08 04:33:28;;;;;;;45.92;32.92;;;;;;;12.99;59.65;100025.16;5030538;28;20552;-63
2022/04/08 04:35:55;;;;;;;54.25;34.08;;;;;;;13.01;59.57;100033.78;5030490;28;20084;-63
2022/04/08 04:38:22;;;;;;;48.72;33.05;;;;;;;13.01;59.70;100033.78;5029348;28;20506;-63
2022/04/08 04:40:49;;;;;;;47.83;33.53;;;;;;;12.97;59.93;100030.53;5030203;28;20100;-63
2022/04/08 04:43:16;;;;;;;47.90;33.55;;;;;;;12.95;60.09;100042.16;5030418;28;20072;-64
2022/04/08 04:45:43;;;;;;;46.45;33.42;;;;;;;12.97;59.99;100041.09;5030125;28;20049;-63
2022/04/08 04:48:11;;;;;;;48.67;33.45;;;;;;;12.93;59.95;100042.28;5030418;28;20049;-63
2022/04/08 04:50:38;;;;;;;49.08;32.90;;;;;;;12.89;60.02;100046.13;5030180;28;20167;-63
2022/04/08 04:53:06;;;;;;;47.47;33.35;;;;;;;12.89;60.04;100051.38;5030702;28;20493;-63
2022/04/08 04:55:33;;;;;;;53.22;34.80;;;;;;;12.87;60.07;100053.28;5028953;28;20464;-63
2022/04/08 04:58:00;;;;;;;54.05;34.83;;;;;;;12.87;60.30;100054.16;5029741;28;20099;-63
2022/04/08 05:00:26;;;;;;;12.55;9.20;;;;;;;13.36;60.15;100059.16;5028435;28;20540;-63
2022/04/08 05:02:53;;;;;;;48.40;33.92;;;;;;;13.75;59.08;100066.63;5030316;28;20111;-63
2022/04/08 05:05:20;;;;;;;48.40;34.60;;;;;;;13.45;59.59;100062.88;5029143;28;20088;-63
2022/04/08 05:07:47;;;;;;;49.13;33.80;;;;;;;13.22;60.13;100070.78;5029280;28;20041;-63
2022/04/08 05:10:13;;;;;;;51.13;34.05;;;;;;;13.17;59.99;100071.13;5028652;28;20088;-63
2022/04/08 05:12:40;;;;;;;53.80;34.47;;;;;;;13.14;59.86;100076.66;5029903;28;20493;-64
2022/04/08 05:15:09;;;;;;;54.17;33.60;;;;;;;13.10;59.93;100071.75;5029511;28;20053;-62
2022/04/08 05:17:39;;;;;;;46.13;32.92;;;;;;;13.13;59.66;100089.94;5029596;28;20054;-63
2022/04/08 05:20:08;;;;;;;53.35;33.50;;;;;;;13.05;59.88;100088.75;5029673;28;20060;-62
2022/04/08 05:22:36;;;;;;;50.65;34.05;;;;;;;13.07;59.67;100080.72;5028865;28;20181;-62
2022/04/08 05:25:03;;;;;;;45.78;32.40;;;;;;;13.00;59.60;100088.28;5028688;28;20548;-63
2022/04/08 05:27:41;;;;;;;49.70;34.35;;;;;;;13.00;59.39;100097.94;5027868;28;20163;-62
2022/04/08 05:30:10;;;;;;;43.58;32.55;;;;;;;12.94;59.51;100101.91;5009580;28;20049;-63
2022/04/08 05:32:36;;;;;;;51.85;34.38;;;;;;;13.00;59.30;100096.16;5028798;28;20054;-63
2022/04/08 05:35:03;;;;;;;44.00;31.27;;;;;;;13.09;58.98;100099.03;5029624;28;20107;-63
2022/04/08 05:37:30;;;;;;;48.47;32.45;;;;;;;13.07;58.87;100093.88;5029059;28;20073;-63
2022/04/08 05:40:16;;;;;;;48.75;32.97;;;;;;;13.13;58.86;100100.47;5393099;23;21947;-64
2022/04/08 05:42:44;;;;;;;48.83;32.70;;;;;;;13.06;59.00;100108.00;5057144;28;20460;-63
2022/04/08 05:45:11;;;;;;;52.88;34.65;;;;;;;13.10;58.71;100116.53;5049776;28;20044;-63
2022/04/08 05:47:39;;;;;;;47.00;31.83;;;;;;;13.13;58.51;100114.50;5049227;28;20099;-63
2022/04/08 05:50:06;;;;;;;47.08;32.88;;;;;;;13.23;58.29;100112.00;5049289;28;20045;-64
2022/04/08 05:52:33;;;;;;;48.70;32.88;;;;;;;13.30;58.13;100114.97;5049043;28;20044;-63
2022/04/08 05:55:00;;;;;;;49.28;26.80;;;;;;;13.39;58.25;100104.59;5049119;28;20052;-65
2022/04/08 05:57:26;;;;;;;48.05;32.40;;;;;;;13.69;57.70;100104.91;5063107;28;20127;-63
2022/04/08 05:59:59;;;;;;;46.38;32.60;;;;;;;13.80;57.51;100109.31;5068846;28;20041;-64
2022/04/08 06:02:25;;;;;;;50.53;33.83;;;;;;;13.93;57.29;100109.13;5069030;28;20488;-63
2022/04/08 06:04:52;;;;;;;49.35;33.03;;;;;;;14.04;57.32;100117.88;5068789;28;20561;-63
2022/04/08 06:07:22;;;;;;;47.85;32.72;;;;;;;14.14;57.12;100106.56;5068861;28;20080;-63
2022/04/08 06:09:48;;;;;;;49.58;34.15;;;;;;;14.21;57.24;100107.75;5068698;28;20060;-63
2022/04/08 06:12:15;;;;;;;52.25;32.30;;;;;;;14.12;57.32;100108.47;5068376;28;20040;-64
2022/04/08 06:14:41;;;;;;;31.42;17.08;;;;;;;14.15;57.83;100113.53;5067419;28;20094;-63
2022/04/08 06:17:08;;;;;;;48.88;33.42;;;;;;;14.28;57.94;100097.50;5067424;28;20094;-64
2022/04/08 06:19:35;;;;;;;49.20;32.30;;;;;;;13.98;58.64;100105.19;5067286;28;20080;-63
2022/04/08 06:22:02;;;;;;;50.63;33.08;;;;;;;13.88;58.63;100118.28;5071037;28;20496;-69
2022/04/08 06:24:28;;;;;;;46.30;30.55;;;;;;;13.72;58.82;100128.38;5071884;28;20049;-63
2022/04/08 06:26:55;;;;;;;48.95;30.80;;;;;;;13.68;59.16;100140.97;5072799;28;20385;-64
2022/04/08 06:29:22;;;;;;;53.85;32.65;;;;;;;13.67;59.27;100141.91;5071042;28;20049;-62
2022/04/08 06:31:48;;;;;;;49.08;33.50;;;;;;;13.64;59.17;100154.53;5072464;28;20119;-62
2022/04/08 06:34:15;;;;;;;46.13;32.67;;;;;;;13.74;59.20;100166.03;5069657;28;20049;-61
2022/04/08 06:36:42;;;;;;;46.75;32.80;;;;;;;13.80;58.99;100173.44;5072178;28;20041;-61
2022/04/08 06:39:08;;;;;;;51.13;32.95;;;;;;;13.82;59.16;100168.03;5072023;28;20045;-62
2022/04/08 06:41:35;;;;;;;54.83;32.80;;;;;;;13.87;59.14;100174.63;5069036;28;20055;-63
2022/04/08 06:44:02;;;;;;;52.67;33.47;;;;;;;13.95;58.87;100160.81;5072037;28;20048;-63
2022/04/08 06:46:29;;;;;;;48.13;32.85;;;;;;;14.00;58.82;100165.72;5071663;28;20079;-63
2022/04/08 06:48:56;;;;;;;50.38;33.17;;;;;;;14.12;58.67;100177.06;5070081;28;20131;-65
2022/04/08 06:51:23;;;;;;;51.80;33.08;;;;;;;14.07;59.06;100179.25;5072219;28;20056;-65
2022/04/08 06:53:50;;;;;;;50.58;33.90;;;;;;;14.10;58.78;100182.47;5072274;28;20052;-66
2022/04/08 06:56:16;;;;;;;47.40;33.15;;;;;;;14.12;58.79;100188.50;5071792;28;20119;-66
2022/04/08 06:58:43;;;;;;;48.10;32.88;;;;;;;14.10;58.89;100179.03;5072294;28;20408;-65
2022/04/08 07:01:09;;;;;;;46.85;32.38;;;;;;;14.15;59.11;100180.31;5072028;28;20056;-65
2022/04/08 07:03:36;;;;;;;47.80;32.03;;;;;;;14.19;58.71;100187.03;5070845;28;20488;-66
2022/04/08 07:06:03;;;;;;;46.85;33.30;;;;;;;14.23;58.75;100192.88;5072085;28;20041;-66
2022/04/08 07:08:30;;;;;;;47.55;32.17;;;;;;;14.30;58.71;100190.59;5072140;28;20041;-65
2022/04/08 07:10:57;;;;;;;46.00;32.22;;;;;;;14.34;58.89;100195.50;5072299;28;20073;-65
2022/04/08 07:13:23;;;;;;;44.17;31.95;;;;;;;14.36;58.86;100192.75;5071923;28;20618;-65
2022/04/08 07:15:50;;;;;;;51.78;33.83;;;;;;;14.43;58.62;100193.06;5071855;28;20139;-66
2022/04/08 07:18:17;;;;;;;63.63;34.20;;;;;;;14.46;58.70;100196.31;5070703;28;20053;-65
2022/04/08 07:20:44;;;;;;;49.10;32.13;;;;;;;14.54;58.57;100193.88;5071713;28;20087;-65
2022/04/08 07:23:10;;;;;;;51.33;32.95;;;;;;;14.59;58.50;100197.91;5071370;28;20523;-66
2022/04/08 07:25:38;;;;;;;50.70;32.75;;;;;;;14.60;58.63;100197.81;5071699;28;20044;-65
2022/04/08 07:28:05;;;;;;;46.80;31.77;;;;;;;14.66;58.51;100188.56;5071661;28;20067;-65
2022/04/08 07:30:31;;;;;;;48.45;31.98;;;;;;;14.72;58.36;100195.97;5071507;28;20064;-65
2022/04/08 07:33:00;;;;;;;45.00;30.30;;;;;;;14.75;58.21;100202.81;5071209;28;20079;-65
2022/04/08 07:35:28;;;;;;;47.08;32.25;;;;;;;14.77;58.39;100201.72;5070066;28;20492;-65
2022/04/08 07:37:55;;;;;;;45.35;30.60;;;;;;;14.88;58.03;100192.06;5071703;28;20045;-65
2022/04/08 07:40:21;;;;;;;41.90;30.52;;;;;;;15.14;57.65;100197.81;5071261;28;20487;-66
2022/04/08 07:42:49;;;;;;;41.08;28.70;;;;;;;15.59;56.36;100205.41;5071607;28;20087;-65
2022/04/08 07:45:17;;;;;;;44.60;28.35;;;;;;;15.61;56.63;100205.28;5071571;28;20052;-65
2022/04/08 07:47:44;;;;;;;42.83;27.90;;;;;;;15.56;56.37;100213.59;5071108;28;20154;-65
2022/04/08 07:50:13;;;;;;;39.13;24.38;;;;;;;15.51;56.83;100207.88;5071231;28;20048;-65
2022/04/08 07:52:41;;;;;;;38.90;24.13;;;;;;;15.42;56.74;100213.94;5070056;28;20048;-65
2022/04/08 07:55:09;;;;;;;36.40;22.73;;;;;;;15.42;56.89;100212.13;5071063;28;20536;-65
2022/04/08 07:57:47;;;;;;;38.17;21.92;;;;;;;15.54;56.86;100207.63;5071186;28;20102;-65
2022/04/08 08:00:15;;;;;;;29.00;20.48;;;;;;;15.77;56.33;100213.53;5071318;28;20492;-65
2022/04/08 08:02:43;;;;;;;31.85;20.58;;;;;;;15.85;56.05;100214.72;5071036;28;20492;-65
2022/04/08 08:05:10;;;;;;;33.22;20.40;;;;;;;15.74;56.33;100210.31;5070849;28;20060;-65
2022/04/08 08:07:49;;;;;;;30.75;18.45;;;;;;;15.79;56.25;100205.47;5071044;28;20485;-66
2022/04/08 08:10:21;;;;;;;32.58;19.05;;;;;;;15.99;55.54;100201.94;5070340;28;20665;-66
2022/04/08 08:12:48;;;;;;;28.40;18.67;;;;;;;16.08;55.57;100202.09;5071047;28;20049;-65
2022/04/08 08:15:18;;;;;;;27.10;17.63;;;;;;;16.23;55.14;100205.22;5070580;28;20044;-65
2022/04/08 08:17:45;;;;;;;29.83;16.65;;;;;;;16.76;53.97;100207.44;5071085;28;20045;-65
2022/04/08 08:20:14;;;;;;;22.50;15.32;;;;;;;16.98;53.03;100208.97;5070629;28;20045;-65
2022/04/08 08:22:42;;;;;;;24.15;15.82;;;;;;;17.20;52.62;100216.75;5070553;28;20048;-65
2022/04/08 08:25:11;;;;;;;26.52;16.30;;;;;;;17.01;52.54;100217.63;5069325;28;20052;-65
2022/04/08 08:27:39;;;;;;;23.20;16.13;;;;;;;17.26;51.94;100211.72;5070716;28;20492;-65
2022/04/08 08:30:10;;;;;;;23.90;14.48;;;;;;;16.96;52.63;100205.66;5070357;28;20055;-65
2022/04/08 08:32:42;;;;;;;21.35;14.90;;;;;;;17.24;51.96;100208.38;5070578;28;20049;-65
2022/04/08 08:35:10;;;;;;;22.23;14.40;;;;;;;17.89;50.71;100204.06;5070021;28;20389;-65
2022/04/08 08:37:37;;;;;;;21.35;14.45;;;;;;;18.37;49.51;100200.31;5070361;28;20044;-65
2022/04/08 08:40:05;;;;;;;24.02;13.85;;;;;;;18.36;49.18;100196.00;5069905;28;20430;-65
2022/04/08 08:42:34;;;;;;;16.55;10.32;;;;;;;18.15;49.84;100206.06;5055234;28;20088;-62
2022/04/08 08:45:00;;;;;;;18.63;12.10;;;;;;;18.14;50.27;100207.03;5059415;28;20519;-63
2022/04/08 08:47:29;;;;;;;18.27;12.05;;;;;;;18.28;49.54;100203.88;5067168;28;20036;-64
2022/04/08 08:49:57;;;;;;;18.00;11.77;;;;;;;18.41;49.23;100204.34;5070058;28;20060;-65
2022/04/08 08:52:24;;;;;;;17.58;11.90;;;;;;;18.67;48.16;100202.75;5065011;28;20756;-64
2022/04/08 08:54:51;;;;;;;17.77;11.80;;;;;;;18.75;48.29;100214.28;5061610;28;20048;-68
2022/04/08 08:57:19;;;;;;;22.25;10.88;;;;;;;18.67;48.35;100208.88;5068797;28;20079;-64
2022/04/08 08:59:47;;;;;;;20.38;10.20;;;;;;;18.86;48.25;100201.72;5048198;28;20068;-65
2022/04/08 09:02:21;;;;;;;14.98;9.23;;;;;;;19.19;47.85;100200.16;5053085;28;20433;-65
2022/04/08 09:04:51;;;;;;;17.07;9.23;;;;;;;19.16;47.69;100197.81;5068378;28;20102;-64
2022/04/08 09:07:29;;;;;;;18.30;8.93;;;;;;;19.26;47.17;100192.38;5068764;28;20088;-64
2022/04/08 09:09:57;;;;;;;17.67;9.30;;;;;;;19.29;47.10;100185.91;5069377;28;20076;-66
2022/04/08 09:12:30;;;;;;;15.50;8.40;;;;;;;18.96;47.98;100196.31;5068896;28;20109;-64
2022/04/08 09:14:59;;;;;;;15.07;8.95;;;;;;;18.86;47.89;100194.56;5055560;28;20061;-64
2022/04/08 09:17:27;;;;;;;14.45;8.20;;;;;;;19.02;47.71;100203.69;5060737;28;20083;-64
2022/04/08 09:19:57;;;;;;;15.25;8.88;;;;;;;19.81;45.97;100196.47;5068269;28;20044;-64
2022/04/08 09:22:27;;;;;;;17.88;8.75;;;;;;;19.49;46.65;100205.13;5056637;28;20064;-64
2022/04/08 09:24:54;;;;;;;14.30;8.77;;;;;;;19.56;46.40;100203.53;5067752;28;20102;-65
2022/04/08 09:27:31;;;;;;;13.57;8.48;;;;;;;19.76;45.92;100198.78;5066950;28;20101;-65
2022/04/08 09:29:58;;;;;;;16.30;9.65;;;;;;;19.70;45.84;100202.91;5059481;28;20434;-64
2022/04/08 09:32:32;;;;;;;15.30;8.48;;;;;;;20.03;44.94;100203.06;5068831;28;20048;-64
2022/04/08 09:34:59;;;;;;;14.63;8.63;;;;;;;20.48;44.40;100189.50;5068229;28;20084;-64
2022/04/08 09:37:26;;;;;;;11.52;8.23;;;;;;;20.83;43.33;100201.69;5068685;28;20079;-64
2022/04/08 09:40:05;;;;;;;15.80;8.15;;;;;;;21.07;43.12;100196.50;5068038;28;20058;-64
2022/04/08 09:42:49;;;;;;;16.50;8.52;;;;;;;21.24;42.69;100190.13;5059430;28;20056;-65
2022/04/08 09:45:29;;;;;;;13.18;7.93;;;;;;;21.46;42.42;100185.09;5053360;28;20036;-66
2022/04/08 09:47:57;;;;;;;13.98;7.43;;;;;;;21.57;42.18;100182.03;5055065;28;20132;-65
2022/04/08 09:50:24;;;;;;;14.05;7.22;;;;;;;21.64;41.64;100172.34;5048287;28;20585;-64
2022/04/08 09:52:52;;;;;;;12.10;6.80;;;;;;;21.72;41.79;100163.47;5048707;28;20044;-65
2022/04/08 09:55:21;;;;;;;16.08;7.47;;;;;;;21.88;41.15;100151.88;5047614;28;20049;-65
2022/04/08 09:57:55;;;;;;;12.02;7.50;;;;;;;22.04;41.16;100158.13;5061684;28;20092;-66
2022/04/08 10:00:23;;;;;;;12.60;7.20;;;;;;;22.14;40.78;100145.34;5067745;28;20090;-66
2022/04/08 10:02:52;;;;;;;16.10;8.18;;;;;;;22.17;40.63;100153.03;5067180;28;20067;-66
2022/04/08 10:05:20;;;;;;;14.55;8.38;;;;;;;22.23;40.44;100152.31;5064561;28;20090;-65
2022/04/08 10:07:48;;;;;;;16.23;7.45;;;;;;;22.40;40.00;100150.38;5067952;28;20127;-65
2022/04/08 10:10:27;;;;;;;18.17;7.40;;;;;;;22.45;39.85;100139.16;5067731;28;20051;-65
2022/04/08 10:12:57;;;;;;;;;;;;;;;22.70;39.45;100147.78;5065029;28;20112;-69
2022/04/08 10:16:02;;;;;;;13.60;6.50;;;;;;;22.88;38.87;100144.78;5066903;28;19924;-65
2022/04/08 10:18:39;;;;;;;15.20;6.38;;;;;;;22.98;38.89;100137.31;5064451;28;20048;-66
2022/04/08 10:21:06;;;;;;;17.20;6.60;;;;;;;23.22;38.43;100145.28;5060204;28;20098;-69
2022/04/08 10:23:39;;;;;;;12.88;6.63;;;;;;;23.35;38.14;100126.75;5047266;28;20599;-66
2022/04/08 10:26:17;;;;;;;12.30;6.20;;;;;;;23.41;37.92;100115.25;5048080;28;20611;-64
2022/04/08 10:28:44;;;;;;;11.20;6.47;;;;;;;23.62;37.82;100113.69;5067846;28;20090;-65
2022/04/08 10:31:27;;;;;;;12.13;6.65;;;;;;;23.75;37.48;100108.44;5068545;28;20096;-68
2022/04/08 10:33:59;;;;;;;11.75;7.00;;;;;;;23.89;37.17;100103.25;5058789;28;20132;-66
2022/04/08 10:36:32;;;;;;;14.27;7.18;;;;;;;24.02;37.20;100107.94;5049308;28;20060;-65
2022/04/08 10:39:21;;;;;;;14.05;6.90;;;;;;;24.11;36.92;100098.75;5068018;28;20070;-64
2022/04/08 10:41:58;;;;;;;9.15;5.88;;;;;;;24.18;36.71;100101.50;5068185;28;20114;-66
2022/04/08 10:44:33;;;;;;;13.70;6.57;;;;;;;24.34;36.31;100089.66;5065459;28;20048;-66
2022/04/08 10:47:09;;;;;;;;;;;;;;;24.44;36.20;100091.00;5048438;28;20049;-65
2022/04/08 10:49:47;;;;;;;11.30;7.82;;;;;;;24.52;36.27;100087.34;5048306;28;19920;-65
2022/04/08 10:52:15;;;;;;;11.10;7.22;;;;;;;24.64;36.06;100081.44;5057901;28;20086;-65
2022/04/08 10:54:42;;;;;;;15.25;7.53;;;;;;;24.65;36.15;100078.59;5067364;28;20469;-67
2022/04/08 10:57:09;;;;;;;14.55;6.78;;;;;;;24.87;35.60;100079.34;5067244;28;20496;-67
2022/04/08 10:59:36;;;;;;;14.27;7.70;;;;;;;25.02;35.15;100081.09;5068343;28;20049;-66
2022/04/08 11:02:06;;;;;;;12.15;6.63;;;;;;;25.09;35.08;100079.28;5067680;28;20098;-66
2022/04/08 11:04:33;;;;;;;12.60;6.97;;;;;;;25.15;34.74;100075.78;5067675;28;20128;-66
2022/04/08 11:07:05;;;;;;;11.25;6.38;;;;;;;25.25;34.36;100061.97;5068276;28;20995;-66
2022/04/08 11:09:32;;;;;;;12.85;5.75;;;;;;;25.40;34.14;100053.81;5072022;28;20048;-66
2022/04/08 11:11:59;;;;;;;12.30;5.85;;;;;;;25.45;33.98;100066.66;5071625;28;20070;-66
2022/04/08 11:14:28;;;;;;;9.07;5.07;;;;;;;25.62;33.81;100062.53;5071269;28;20476;-66
2022/04/08 11:16:55;;;;;;;9.43;5.30;;;;;;;25.73;33.51;100055.75;5071615;28;20048;-66